Time;durP1;ratioP1;P1;durP2;ratioP2;P2;SDS_P1;SDS_P2;PMS_P1;PMS_P2;Temp;Humidity;BMP_temperature;BMP_pressure;BME280_temperature;BME280_humidity;BME280_pressure;Samples;Min_cycle;Max_cycle;Signal;HPM_P1;HPM_P2
2022/06/08 00:00:21;;;;;;;9.43;4.28;;;;;;;;;;5092129;28;20035;-72
2022/06/08 00:02:50;;;;;;;7.93;4.15;;;;;;;;;;5092071;28;20091;-72
2022/06/08 00:05:16;;;;;;;7.75;4.20;;;;;;;;;;5086336;28;20023;-72
2022/06/08 00:07:43;;;;;;;6.47;4.18;;;;;;;;;;5089236;28;20101;-72
2022/06/08 00:10:10;;;;;;;11.15;4.22;;;;;;;;;;5090510;28;20398;-72
2022/06/08 00:12:37;;;;;;;4.57;3.22;;;;;;;;;;5090188;28;20483;-72
2022/06/08 00:15:06;;;;;;;6.13;3.90;;;;;;;;;;5095011;28;20028;-72
2022/06/08 00:17:33;;;;;;;7.82;4.20;;;;;;;;;;5095817;28;20114;-72
2022/06/08 00:19:59;;;;;;;9.82;5.70;;;;;;;;;;5095610;28;20032;-72
2022/06/08 00:22:26;;;;;;;13.38;5.63;;;;;;;;;;5095788;28;20036;-72
2022/06/08 00:24:53;;;;;;;9.40;4.60;;;;;;;;;;5095789;28;20051;-72
2022/06/08 00:27:19;;;;;;;10.80;4.87;;;;;;;;;;5090116;28;20027;-72
2022/06/08 00:29:46;;;;;;;8.87;4.30;;;;;;;;;;5089628;28;20027;-73
2022/06/08 00:32:13;;;;;;;7.63;3.73;;;;;;;;;;5089906;28;20112;-72
2022/06/08 00:34:39;;;;;;;10.10;5.00;;;;;;;;;;5089868;28;20024;-72
2022/06/08 00:37:06;;;;;;;8.20;4.13;;;;;;;;;;5093364;28;20028;-72
2022/06/08 00:39:33;;;;;;;13.70;4.57;;;;;;;;;;5095373;28;20024;-72
2022/06/08 00:42:02;;;;;;;5.20;3.97;;;;;;;;;;5095296;28;20020;-72
2022/06/08 00:44:32;;;;;;;5.27;3.60;;;;;;;;;;5095373;28;20027;-72
2022/06/08 00:47:00;;;;;;;5.50;2.87;;;;;;;;;;5094738;28;20032;-72
2022/06/08 00:49:28;;;;;;;4.67;2.93;;;;;;;;;;5090873;28;20035;-72
2022/06/08 00:51:56;;;;;;;3.80;2.27;;;;;;;;;;5089651;28;20459;-71
2022/06/08 00:54:27;;;;;;;5.30;2.40;;;;;;;;;;5089647;28;20036;-71
2022/06/08 00:57:06;;;;;;;3.50;2.47;;;;;;;;;;5089580;28;20024;-71
2022/06/08 00:59:34;;;;;;;5.17;2.43;;;;;;;;;;5092944;28;20118;-71
2022/06/08 01:02:01;;;;;;;6.80;2.77;;;;;;;;;;5094540;28;20032;-71
2022/06/08 01:04:30;;;;;;;5.47;2.80;;;;;;;;;;5094862;28;20104;-71
2022/06/08 01:06:58;;;;;;;7.57;2.17;;;;;;;;;;5094948;28;20459;-71
2022/06/08 01:09:28;;;;;;;4.80;2.20;;;;;;;;;;5094969;28;20501;-71
2022/06/08 01:11:56;;;;;;;2.67;1.63;;;;;;;;;;5090459;28;20031;-73
2022/06/08 01:14:23;;;;;;;3.60;1.63;;;;;;;;;;5089066;28;20051;-74
2022/06/08 01:16:57;;;;;;;3.77;1.70;;;;;;;;;;5088658;28;20364;-74
2022/06/08 01:19:24;;;;;;;9.50;2.10;;;;;;;;;;5088609;28;20031;-74
2022/06/08 01:21:51;;;;;;;4.33;2.40;;;;;;;;;;5091968;28;20499;-74
2022/06/08 01:24:18;;;;;;;4.80;1.80;;;;;;;;;;5094643;28;20506;-73
2022/06/08 01:26:50;;;;;;;2.90;1.50;;;;;;;;;;5094543;28;20024;-74
2022/06/08 01:29:17;;;;;;;3.77;1.57;;;;;;;;;;5094478;28;20024;-74
2022/06/08 01:31:56;;;;;;;3.40;1.83;;;;;;;;;;5094187;28;20050;-73
2022/06/08 01:34:28;;;;;;;2.60;1.43;;;;;;;;;;5070144;28;20031;-73
2022/06/08 01:37:08;;;;;;;3.27;1.37;;;;;;;;;;5068876;28;20099;-73
2022/06/08 01:39:45;;;;;;;3.77;1.73;;;;;;;;;;5068619;28;20031;-74
2022/06/08 01:42:19;;;;;;;3.97;2.10;;;;;;;;;;5068673;28;20355;-73
2022/06/08 01:47:49;;;;;;;2.80;1.70;;;;;;;;;;5094110;28;20050;-73
2022/06/08 01:50:31;;;;;;;4.77;1.60;;;;;;;;;;5094065;28;20038;-74
2022/06/08 01:53:08;;;;;;;3.07;1.70;;;;;;;;;;5094096;28;20505;-73
2022/06/08 01:55:44;;;;;;;3.67;1.70;;;;;;;;;;5092715;28;20020;-73
2022/06/08 01:58:18;;;;;;;3.20;1.80;;;;;;;;;;5087791;28;20035;-73
2022/06/08 02:00:49;;;;;;;6.72;2.55;;;;;;;;;;5088572;28;20043;-73
2022/06/08 02:03:29;;;;;;;4.17;1.60;;;;;;;;;;5088494;28;20012;-73
2022/06/08 02:06:07;;;;;;;3.57;2.10;;;;;;;;;;5089940;28;20491;-73
2022/06/08 02:08:34;;;;;;;10.43;2.40;;;;;;;;;;5092791;28;20039;-73
2022/06/08 02:11:04;;;;;;;5.83;2.63;;;;;;;;;;5093789;28;20027;-73
2022/06/08 02:13:39;;;;;;;3.87;2.57;;;;;;;;;;5093538;28;20030;-73
2022/06/08 02:16:17;;;;;;;6.13;2.67;;;;;;;;;;5093565;28;20018;-73
2022/06/08 02:19:11;;;;;;;3.67;2.43;;;;;;;;;;5089888;28;20032;-73
2022/06/08 02:21:42;;;;;;;8.00;4.57;;;;;;;;;;5085623;28;20032;-73
2022/06/08 02:24:17;;;;;;;8.93;5.40;;;;;;;;;;5087890;28;20016;-73
2022/06/08 02:26:55;;;;;;;6.50;4.00;;;;;;;;;;5087458;28;20365;-73
2022/06/08 02:29:27;;;;;;;8.00;4.23;;;;;;;;;;5091081;28;20024;-73
2022/06/08 02:31:56;;;;;;;6.47;3.10;;;;;;;;;;5092813;28;20017;-73
2022/06/08 02:34:29;;;;;;;5.77;3.40;;;;;;;;;;5093159;28;20024;-73
2022/06/08 02:36:56;;;;;;;5.75;2.95;;;;;;;;;;5093052;28;20032;-73
2022/06/08 02:39:31;;;;;;;3.93;2.37;;;;;;;;;;5093005;28;20478;-73
2022/06/08 02:42:03;;;;;;;4.17;1.93;;;;;;;;;;5087422;28;20030;-73
2022/06/08 02:44:31;;;;;;;4.63;2.40;;;;;;;;;;5087697;28;20023;-73
2022/06/08 02:47:04;;;;;;;4.97;2.77;;;;;;;;;;5087551;28;20028;-73
2022/06/08 02:49:35;;;;;;;4.23;2.53;;;;;;;;;;5087414;28;20024;-73
2022/06/08 02:52:03;;;;;;;5.07;2.70;;;;;;;;;;5091458;28;20040;-73
2022/06/08 02:54:30;;;;;;;6.50;2.57;;;;;;;;;;5092647;28;20043;-73
2022/06/08 02:57:11;;;;;;;7.00;3.00;;;;;;;;;;5092767;28;20028;-73
2022/06/08 02:59:43;;;;;;;7.60;2.70;;;;;;;;;;5092139;28;20056;-73
2022/06/08 03:02:35;;;;;;;5.87;2.43;;;;;;;;;;5091160;28;20038;-73
2022/06/08 03:05:14;;;;;;;6.50;2.60;;;;;;;;;;5087066;28;20024;-73
2022/06/08 03:07:53;;;;;;;5.67;2.80;;;;;;;;;;5087396;28;20348;-73
2022/06/08 03:10:20;;;;;;;5.27;2.63;;;;;;;;;;5087255;28;20093;-73
2022/06/08 03:12:49;;;;;;;7.83;3.17;;;;;;;;;;5087698;28;20056;-73
2022/06/08 03:15:17;;;;;;;4.10;2.57;;;;;;;;;;5092587;28;20028;-73
2022/06/08 03:17:47;;;;;;;5.80;2.87;;;;;;;;;;5092459;28;20035;-73
2022/06/08 03:20:14;;;;;;;5.73;2.50;;;;;;;;;;5092703;28;20431;-73
2022/06/08 03:22:41;;;;;;;6.77;3.10;;;;;;;;;;5092313;28;20028;-73
2022/06/08 03:25:08;;;;;;;6.33;3.20;;;;;;;;;;5090764;28;20051;-73
2022/06/08 03:27:37;;;;;;;3.93;2.67;;;;;;;;;;5086596;28;20030;-73
2022/06/08 03:30:07;;;;;;;4.17;2.70;;;;;;;;;;5086867;28;20028;-73
2022/06/08 03:32:33;;;;;;;4.93;2.40;;;;;;;;;;5087019;28;20049;-73
2022/06/08 03:35:00;;;;;;;6.27;3.03;;;;;;;;;;5086974;28;20036;-73
2022/06/08 03:37:27;;;;;;;9.10;3.83;;;;;;;;;;5091849;28;20036;-73
2022/06/08 03:39:53;;;;;;;4.33;2.80;;;;;;;;;;5091776;28;20055;-73
2022/06/08 03:42:20;;;;;;;7.97;3.50;;;;;;;;;;5096806;28;20028;-73
2022/06/08 03:44:47;;;;;;;4.47;2.57;;;;;;;;;;5099000;28;20104;-73
2022/06/08 03:47:17;;;;;;;4.60;3.10;;;;;;;;;;5098707;28;20031;-72
2022/06/08 03:49:44;;;;;;;7.97;3.40;;;;;;;;;;5093310;28;20106;-73
2022/06/08 03:52:18;;;;;;;6.20;3.60;;;;;;;;;;5093470;28;20030;-72
2022/06/08 03:54:48;;;;;;;9.13;3.75;;;;;;;;;;5093115;28;20024;-73
2022/06/08 03:57:16;;;;;;;6.30;4.10;;;;;;;;;;5093422;28;20376;-72
2022/06/08 03:59:45;;;;;;;8.83;4.40;;;;;;;;;;5098799;28;20039;-73
2022/06/08 04:02:12;;;;;;;6.93;3.93;;;;;;;;;;5098604;28;20046;-73
2022/06/08 04:04:39;;;;;;;7.93;3.77;;;;;;;;;;5098783;28;20028;-72
2022/06/08 04:07:06;;;;;;;6.33;3.87;;;;;;;;;;5098823;28;20027;-72
2022/06/08 04:09:33;;;;;;;5.80;3.93;;;;;;;;;;5098756;28;20487;-72
2022/06/08 04:12:00;;;;;;;8.30;3.47;;;;;;;;;;5092719;28;20020;-72
2022/06/08 04:14:26;;;;;;;5.13;3.10;;;;;;;;;;5093363;28;20020;-72
2022/06/08 04:16:53;;;;;;;10.20;4.20;;;;;;;;;;5093463;28;20022;-72
2022/06/08 04:19:20;;;;;;;7.93;3.50;;;;;;;;;;5093260;28;20032;-72
2022/06/08 04:21:47;;;;;;;6.37;4.00;;;;;;;;;;5098252;28;20486;-72
2022/06/08 04:24:15;;;;;;;5.60;3.60;;;;;;;;;;5098434;28;20039;-72
2022/06/08 04:26:42;;;;;;;6.10;3.77;;;;;;;;;;5098705;28;20020;-72
2022/06/08 04:29:10;;;;;;;10.73;4.00;;;;;;;;;;5097986;28;20035;-72
2022/06/08 04:31:36;;;;;;;9.27;3.60;;;;;;;;;;5098580;28;20035;-72
2022/06/08 04:34:05;;;;;;;7.33;3.60;;;;;;;;;;5093176;28;20117;-72
2022/06/08 04:36:32;;;;;;;6.60;3.57;;;;;;;;;;5093092;28;20032;-72
2022/06/08 04:38:59;;;;;;;5.03;3.13;;;;;;;;;;5093079;28;20084;-72
2022/06/08 04:41:27;;;;;;;7.27;3.67;;;;;;;;;;5092379;28;20043;-72
2022/06/08 04:43:55;;;;;;;6.10;3.70;;;;;;;;;;5096715;28;20028;-72
2022/06/08 04:46:21;;;;;;;6.60;4.07;;;;;;;;;;5098183;28;20024;-72
2022/06/08 04:48:48;;;;;;;12.30;5.37;;;;;;;;;;5098376;28;20034;-73
2022/06/08 04:51:16;;;;;;;7.53;5.57;;;;;;;;;;5098419;28;20483;-72
2022/06/08 04:53:44;;;;;;;10.27;5.20;;;;;;;;;;5094927;28;20156;-72
2022/06/08 04:56:11;;;;;;;5.80;4.23;;;;;;;;;;5090377;28;20043;-72
2022/06/08 04:58:38;;;;;;;6.87;4.17;;;;;;;;;;5089634;28;20504;-72
2022/06/08 05:01:05;;;;;;;8.73;4.93;;;;;;;;;;5089370;28;20023;-72
2022/06/08 05:03:32;;;;;;;6.80;4.83;;;;;;;;;;5089330;28;20035;-72
2022/06/08 05:06:00;;;;;;;8.93;6.17;;;;;;;;;;5092895;28;20027;-72
2022/06/08 05:08:27;;;;;;;11.73;7.37;;;;;;;;;;5094505;28;20024;-72
2022/06/08 05:10:54;;;;;;;11.40;8.17;;;;;;;;;;5095103;28;20028;-72
2022/06/08 05:13:22;;;;;;;10.43;7.20;;;;;;;;;;5094854;28;20099;-72
2022/06/08 05:15:49;;;;;;;11.57;7.40;;;;;;;;;;5094284;28;20340;-72
2022/06/08 05:18:20;;;;;;;10.10;6.30;;;;;;;;;;5090830;28;20040;-73
2022/06/08 05:20:47;;;;;;;10.40;7.07;;;;;;;;;;5089112;28;20017;-72
2022/06/08 05:23:23;;;;;;;11.10;7.67;;;;;;;;;;5089277;28;20584;-72
2022/06/08 05:25:49;;;;;;;7.80;6.20;;;;;;;;;;5088927;28;20030;-72
2022/06/08 05:28:16;;;;;;;8.70;6.63;;;;;;;;;;5092244;28;20028;-73
2022/06/08 05:30:43;;;;;;;9.00;6.70;;;;;;;;;;5094481;28;20073;-72
2022/06/08 05:33:11;;;;;;;9.23;6.80;;;;;;;;;;5093943;28;20024;-72
2022/06/08 05:35:38;;;;;;;10.47;7.33;;;;;;;;;;5094599;28;20020;-72
2022/06/08 05:38:05;;;;;;;9.87;7.07;;;;;;;;;;5094115;28;20526;-72
2022/06/08 05:40:42;;;;;;;11.60;7.73;;;;;;;;;;5091002;28;20024;-72
2022/06/08 05:43:12;;;;;;;11.43;8.17;;;;;;;;;;5082298;28;20897;-73
2022/06/08 05:45:39;;;;;;;11.03;8.13;;;;;;;;;;5088638;28;20033;-72
2022/06/08 05:48:06;;;;;;;11.87;8.40;;;;;;;;;;5088841;28;20028;-72
2022/06/08 05:50:34;;;;;;;9.37;7.67;;;;;;;;;;5091684;28;20024;-72
2022/06/08 05:53:01;;;;;;;11.57;8.00;;;;;;;;;;5093770;28;20020;-72
2022/06/08 05:55:28;;;;;;;9.17;7.30;;;;;;;;;;5093853;28;20028;-72
2022/06/08 05:57:55;;;;;;;10.73;6.57;;;;;;;;;;5093872;28;20020;-72
2022/06/08 06:00:23;;;;;;;11.53;7.80;;;;;;;;;;5094035;28;20400;-72
2022/06/08 06:02:50;;;;;;;10.73;7.97;;;;;;;;;;5090325;28;20475;-72
2022/06/08 06:05:18;;;;;;;10.83;7.53;;;;;;;;;;5087929;28;20077;-72
2022/06/08 06:07:45;;;;;;;11.47;7.77;;;;;;;;;;5088429;28;20482;-72
2022/06/08 06:10:13;;;;;;;13.17;7.90;;;;;;;;;;5088464;28;20028;-72
2022/06/08 06:12:40;;;;;;;10.43;7.90;;;;;;;;;;5090737;28;20367;-72
2022/06/08 06:15:07;;;;;;;11.80;8.17;;;;;;;;;;5093522;28;20093;-72
2022/06/08 06:17:34;;;;;;;10.40;7.83;;;;;;;;;;5093253;28;20036;-72
2022/06/08 06:20:01;;;;;;;12.40;7.80;;;;;;;;;;5093162;28;20479;-72
2022/06/08 06:22:30;;;;;;;9.63;7.10;;;;;;;;;;5093599;28;20020;-72
2022/06/08 06:24:57;;;;;;;8.90;6.33;;;;;;;;;;5090651;28;20020;-72
2022/06/08 06:27:23;;;;;;;9.50;6.63;;;;;;;;;;5087986;28;20020;-72
2022/06/08 06:29:51;;;;;;;14.00;8.67;;;;;;;;;;5087624;28;20476;-72
2022/06/08 06:32:32;;;;;;;11.77;8.40;;;;;;;;;;5087981;28;20144;-72
2022/06/08 06:34:59;;;;;;;10.43;7.80;;;;;;;;;;5090283;28;20128;-72
2022/06/08 06:37:26;;;;;;;10.80;7.40;;;;;;;;;;5093220;28;20024;-72
2022/06/08 06:39:53;;;;;;;10.93;7.47;;;;;;;;;;5093129;28;20024;-72
2022/06/08 06:42:21;;;;;;;10.40;7.43;;;;;;;;;;5092948;28;20032;-72
2022/06/08 06:44:48;;;;;;;8.90;6.73;;;;;;;;;;5093224;28;20542;-73
2022/06/08 06:47:15;;;;;;;12.13;8.10;;;;;;;;;;5090063;28;20024;-72
2022/06/08 06:49:41;;;;;;;12.10;8.87;;;;;;;;;;5087425;28;20147;-72
2022/06/08 06:52:10;;;;;;;13.70;9.00;;;;;;;;;;5087621;28;20059;-72
2022/06/08 06:54:36;;;;;;;11.90;8.27;;;;;;;;;;5087218;28;20111;-72
2022/06/08 06:57:03;;;;;;;12.57;7.90;;;;;;;;;;5089090;28;20019;-72
2022/06/08 06:59:30;;;;;;;9.43;7.17;;;;;;;;;;5092907;28;20060;-72
2022/06/08 07:01:57;;;;;;;11.33;7.57;;;;;;;;;;5092952;28;20058;-72
2022/06/08 07:04:23;;;;;;;7.30;6.10;;;;;;;;;;5092703;28;20099;-72
2022/06/08 07:06:50;;;;;;;10.07;7.70;;;;;;;;;;5091974;28;20035;-72
2022/06/08 07:09:17;;;;;;;11.37;7.77;;;;;;;;;;5090596;28;20020;-72
2022/06/08 07:11:44;;;;;;;10.83;7.20;;;;;;;;;;5087260;28;20077;-72
2022/06/08 07:14:17;;;;;;;9.03;7.43;;;;;;;;;;5087356;28;20024;-72
2022/06/08 07:16:45;;;;;;;9.43;7.57;;;;;;;;;;5086713;28;20027;-72
2022/06/08 07:19:12;;;;;;;8.93;6.33;;;;;;;;;;5088410;28;20387;-72
2022/06/08 07:21:40;;;;;;;8.60;6.27;;;;;;;;;;5091888;28;20056;-72
2022/06/08 07:24:07;;;;;;;13.13;7.40;;;;;;;;;;5092624;28;20077;-72
2022/06/08 07:26:34;;;;;;;8.67;6.50;;;;;;;;;;5092650;28;20035;-72
2022/06/08 07:29:00;;;;;;;10.40;6.93;;;;;;;;;;5092081;28;20360;-72
2022/06/08 07:31:27;;;;;;;9.10;6.80;;;;;;;;;;5090927;28;20104;-72
2022/06/08 07:33:54;;;;;;;11.77;7.53;;;;;;;;;;5087288;28;20644;-72
2022/06/08 07:36:21;;;;;;;8.97;6.23;;;;;;;;;;5087248;28;20077;-72
2022/06/08 07:38:48;;;;;;;10.53;7.10;;;;;;;;;;5086601;28;20032;-72
2022/06/08 07:41:15;;;;;;;9.63;6.63;;;;;;;;;;5087631;28;20038;-72
2022/06/08 07:43:41;;;;;;;8.77;6.53;;;;;;;;;;5092471;28;20037;-72
2022/06/08 07:46:09;;;;;;;9.47;7.43;;;;;;;;;;5092285;28;20044;-72
2022/06/08 07:51:20;;;;;;;10.13;7.32;;;;;;;;;;5091855;28;20133;-72
2022/06/08 07:53:47;;;;;;;13.37;9.00;;;;;;;;;;5090127;28;20028;-72
2022/06/08 07:56:13;;;;;;;9.60;7.63;;;;;;;;;;5086738;28;20052;-72
2022/06/08 07:58:41;;;;;;;10.30;7.37;;;;;;;;;;5087059;28;20117;-72
2022/06/08 08:01:08;;;;;;;9.77;7.97;;;;;;;;;;5086852;28;20519;-72
2022/06/08 08:03:52;;;;;;;10.40;8.00;;;;;;;;;;5087800;28;20035;-72
2022/06/08 08:06:20;;;;;;;12.68;9.63;;;;;;;;;;5091965;28;20043;-72
2022/06/08 08:08:47;;;;;;;13.23;8.27;;;;;;;;;;5092150;28;20081;-72
2022/06/08 08:11:14;;;;;;;11.90;7.67;;;;;;;;;;5092016;28;20031;-73
2022/06/08 08:13:40;;;;;;;13.77;8.60;;;;;;;;;;5091942;28;20479;-72
2022/06/08 08:16:07;;;;;;;14.60;9.87;;;;;;;;;;5090370;28;21836;-72
2022/06/08 08:18:34;;;;;;;13.30;9.83;;;;;;;;;;5086561;28;20126;-72
2022/06/08 08:21:00;;;;;;;12.17;7.77;;;;;;;;;;5086540;28;20016;-72
2022/06/08 08:23:27;;;;;;;10.90;8.23;;;;;;;;;;5086740;28;20425;-72
2022/06/08 08:25:54;;;;;;;11.10;8.80;;;;;;;;;;5087587;28;20454;-72
2022/06/08 08:28:20;;;;;;;10.93;8.60;;;;;;;;;;5092513;28;21124;-72
2022/06/08 08:30:47;;;;;;;14.30;9.47;;;;;;;;;;5095401;28;20036;-72
2022/06/08 08:33:14;;;;;;;12.30;9.17;;;;;;;;;;5095697;28;20073;-72
2022/06/08 08:35:41;;;;;;;12.83;9.10;;;;;;;;;;5095790;28;20020;-72
2022/06/08 08:38:08;;;;;;;10.60;8.30;;;;;;;;;;5094283;28;20497;-72
2022/06/08 08:40:43;;;;;;;11.23;9.30;;;;;;;;;;5090067;28;20532;-72
2022/06/08 08:43:09;;;;;;;;;;;;;;;;;;5090845;28;20024;-72
2022/06/08 08:45:46;;;;;;;11.17;7.67;;;;;;;;;;5090347;28;19908;-72
2022/06/08 08:48:16;;;;;;;11.03;7.73;;;;;;;;;;5090226;28;20082;-72
2022/06/08 08:50:48;;;;;;;13.73;7.77;;;;;;;;;;5095337;28;20059;-72
2022/06/08 08:53:18;;;;;;;12.00;9.27;;;;;;;;;;5094985;28;20043;-72
2022/06/08 08:55:56;;;;;;;15.67;9.60;;;;;;;;;;5094987;28;20032;-72
2022/06/08 08:58:30;;;;;;;11.33;9.27;;;;;;;;;;5095266;28;20024;-72
2022/06/08 09:00:59;;;;;;;11.23;8.80;;;;;;;;;;5092838;28;20028;-72
2022/06/08 09:03:45;;;;;;;11.47;8.53;;;;;;;;;;5089780;28;20114;-72
2022/06/08 09:06:17;;;;;;;10.90;8.70;;;;;;;;;;5089660;28;20477;-72
2022/06/08 09:08:45;;;;;;;10.83;8.27;;;;;;;;;;5089854;28;20032;-72
2022/06/08 09:11:16;;;;;;;11.00;8.93;;;;;;;;;;5092205;28;20479;-72
2022/06/08 09:13:43;;;;;;;10.37;7.60;;;;;;;;;;5094974;28;20375;-72
2022/06/08 09:16:10;;;;;;;13.10;10.43;;;;;;;;;;5094900;28;20024;-72
2022/06/08 09:18:41;;;;;;;14.17;10.53;;;;;;;;;;5094384;28;20123;-72
2022/06/08 09:21:26;;;;;;;13.13;10.30;;;;;;;;;;5094641;28;20047;-72
2022/06/08 09:23:54;;;;;;;12.68;9.70;;;;;;;;;;5090921;28;20031;-72
2022/06/08 09:26:24;;;;;;;11.97;9.43;;;;;;;;;;5089479;28;20022;-72
2022/06/08 09:28:58;;;;;;;12.17;8.93;;;;;;;;;;5089079;28;20368;-72
2022/06/08 09:31:26;;;;;;;11.55;9.00;;;;;;;;;;5089436;28;20118;-73
2022/06/08 09:34:13;;;;;;;11.23;7.37;;;;;;;;;;5092697;28;20043;-72
2022/06/08 09:36:42;;;;;;;11.40;8.63;;;;;;;;;;5083966;28;20039;-72
2022/06/08 09:39:13;;;;;;;10.43;8.00;;;;;;;;;;5093574;28;20036;-72
2022/06/08 09:41:50;;;;;;;10.57;8.03;;;;;;;;;;5094233;28;20059;-72
2022/06/08 09:44:17;;;;;;;9.33;7.47;;;;;;;;;;5094355;28;20356;-73
2022/06/08 09:52:46;;;;;;;13.60;8.90;;;;;;;;;;5089096;28;20043;-72
2022/06/08 09:55:41;;;;;;;12.30;9.20;;;;;;;;;;5089911;28;20024;-72
2022/06/08 09:58:13;;;;;;;11.30;9.03;;;;;;;;;;5093685;28;20032;-72
2022/06/08 10:00:40;;;;;;;15.07;9.90;;;;;;;;;;5094130;28;20028;-72
2022/06/08 10:03:10;;;;;;;11.87;9.33;;;;;;;;;;5093763;28;20039;-72
2022/06/08 10:05:40;;;;;;;13.10;9.27;;;;;;;;;;5093718;28;20028;-72
2022/06/08 10:08:19;;;;;;;11.30;8.60;;;;;;;;;;5091181;28;20052;-72
2022/06/08 10:10:46;;;;;;;11.63;8.53;;;;;;;;;;5088789;28;20395;-70
2022/06/08 10:13:20;;;;;;;13.50;9.27;;;;;;;;;;5088380;28;20027;-70
2022/06/08 10:15:49;;;;;;;11.73;8.97;;;;;;;;;;5088397;28;20035;-70
2022/06/08 10:18:15;;;;;;;11.10;8.83;;;;;;;;;;5091166;28;20044;-70
2022/06/08 10:20:46;;;;;;;11.70;8.43;;;;;;;;;;5093660;28;20101;-70
2022/06/08 10:23:24;;;;;;;13.07;9.50;;;;;;;;;;5093219;28;20027;-70
2022/06/08 10:26:00;;;;;;;11.90;9.13;;;;;;;;;;5093799;28;20078;-70
2022/06/08 10:29:04;;;;;;;10.83;8.03;;;;;;;;;;5093163;28;20035;-70
2022/06/08 10:31:31;;;;;;;11.13;9.17;;;;;;;;;;5088392;28;20541;-70
2022/06/08 10:34:00;;;;;;;11.53;9.23;;;;;;;;;;5088126;28;20476;-70
2022/06/08 10:36:30;;;;;;;13.23;8.97;;;;;;;;;;5070411;28;20425;-70
2022/06/08 10:38:56;;;;;;;12.23;9.57;;;;;;;;;;5087715;28;20439;-70
2022/06/08 10:44:37;;;;;;;16.50;8.10;;;;;;;;;;5093155;28;20069;-71
2022/06/08 10:47:12;;;;;;;11.77;8.60;;;;;;;;;;5092992;28;20046;-72
2022/06/08 10:49:39;;;;;;;13.13;10.30;;;;;;;;;;5093222;28;20024;-72
2022/06/08 10:52:22;;;;;;;14.73;10.60;;;;;;;;;;5090617;28;20032;-72
2022/06/08 10:54:53;;;;;;;11.37;8.40;;;;;;;;;;5087404;28;20070;-72
2022/06/08 10:57:32;;;;;;;16.57;10.07;;;;;;;;;;5087362;28;20404;-72
2022/06/08 11:00:19;;;;;;;12.57;9.10;;;;;;;;;;5087754;28;20024;-72
2022/06/08 11:03:04;;;;;;;12.33;8.77;;;;;;;;;;5038932;28;20513;-72
2022/06/08 11:05:35;;;;;;;12.27;8.23;;;;;;;;;;5093062;28;20024;-72
2022/06/08 11:08:02;;;;;;;11.03;8.70;;;;;;;;;;5092977;28;20150;-72
2022/06/08 11:10:44;;;;;;;10.73;8.47;;;;;;;;;;5092879;28;20173;-72
2022/06/08 11:13:26;;;;;;;17.30;9.27;;;;;;;;;;5092765;28;20024;-72
2022/06/08 11:15:53;;;;;;;15.53;9.77;;;;;;;;;;5087655;28;20501;-72
2022/06/08 11:18:38;;;;;;;16.93;9.33;;;;;;;;;;5087533;28;20042;-72
2022/06/08 11:21:22;;;;;;;13.75;11.02;;;;;;;;;;5087366;28;20028;-72
2022/06/08 11:23:51;;;;;;;19.93;10.97;;;;;;;;;;5087120;28;20032;-72
2022/06/08 11:26:23;;;;;;;18.03;10.60;;;;;;;;;;5092319;28;20032;-72
2022/06/08 11:28:53;;;;;;;15.80;10.37;;;;;;;;;;5092624;28;20020;-72
2022/06/08 11:31:28;;;;;;;16.23;10.13;;;;;;;;;;5092209;28;20044;-72
2022/06/08 11:34:13;;;;;;;14.17;9.87;;;;;;;;;;5091976;28;20074;-72
2022/06/08 11:36:49;;;;;;;13.00;10.07;;;;;;;;;;5091258;28;20474;-72
2022/06/08 11:39:19;;;;;;;19.53;11.87;;;;;;;;;;5066780;28;20506;-71
2022/06/08 11:41:56;;;;;;;17.67;12.67;;;;;;;;;;5067136;28;20028;-72
2022/06/08 11:44:22;;;;;;;18.93;13.17;;;;;;;;;;5066992;28;20078;-72
2022/06/08 11:46:53;;;;;;;16.70;11.23;;;;;;;;;;5068025;28;20028;-71
2022/06/08 11:49:30;;;;;;;13.90;10.70;;;;;;;;;;5079833;28;20037;-72
2022/06/08 11:51:57;;;;;;;13.90;9.80;;;;;;;;;;5092239;28;20020;-72
2022/06/08 11:54:26;;;;;;;16.83;11.17;;;;;;;;;;5091599;28;20031;-71
2022/06/08 11:56:53;;;;;;;21.07;11.13;;;;;;;;;;5092085;28;20383;-72
2022/06/08 11:59:20;;;;;;;14.50;11.30;;;;;;;;;;5090109;28;20032;-70
2022/06/08 12:02:00;;;;;;;14.93;11.70;;;;;;;;;;5086682;28;20391;-70
2022/06/08 12:04:30;;;;;;;14.40;11.27;;;;;;;;;;5091205;28;20023;-70
2022/06/08 12:06:57;;;;;;;17.30;11.33;;;;;;;;;;5090702;28;20020;-70
2022/06/08 12:09:26;;;;;;;17.00;12.40;;;;;;;;;;5092909;28;20471;-70
2022/06/08 12:11:54;;;;;;;15.33;10.50;;;;;;;;;;5095951;28;20024;-70
2022/06/08 12:14:28;;;;;;;16.47;11.87;;;;;;;;;;5095861;28;20095;-70
2022/06/08 12:16:58;;;;;;;13.63;11.10;;;;;;;;;;5096273;28;20026;-70
2022/06/08 12:19:26;;;;;;;15.67;9.93;;;;;;;;;;5095443;28;20284;-70
2022/06/08 12:22:11;;;;;;;15.03;11.20;;;;;;;;;;5093209;28;20479;-70
2022/06/08 12:24:38;;;;;;;14.93;12.07;;;;;;;;;;5090828;28;20024;-70
2022/06/08 12:27:20;;;;;;;18.67;12.37;;;;;;;;;;5090088;28;20075;-70
2022/06/08 12:29:55;;;;;;;19.13;13.10;;;;;;;;;;5090434;28;20026;-70
2022/06/08 12:32:26;;;;;;;24.13;12.98;;;;;;;;;;5093987;28;20041;-70
2022/06/08 12:35:07;;;;;;;16.50;12.53;;;;;;;;;;5095748;28;20105;-70
2022/06/08 12:37:36;;;;;;;15.97;12.50;;;;;;;;;;5095086;28;20486;-69
2022/06/08 12:40:18;;;;;;;17.10;12.73;;;;;;;;;;5095298;28;20162;-70
2022/06/08 12:43:03;;;;;;;17.23;12.93;;;;;;;;;;5095474;28;20028;-70
2022/06/08 12:45:34;;;;;;;16.20;12.55;;;;;;;;;;5090250;28;20016;-70
2022/06/08 12:48:15;;;;;;;17.53;13.73;;;;;;;;;;5089897;28;20185;-70
2022/06/08 12:50:42;;;;;;;19.67;14.80;;;;;;;;;;5090056;28;20035;-69
2022/06/08 12:53:09;;;;;;;20.60;14.77;;;;;;;;;;5090293;28;20538;-70
2022/06/08 12:55:40;;;;;;;15.27;12.03;;;;;;;;;;5095136;28;20031;-70
2022/06/08 12:58:07;;;;;;;20.97;14.27;;;;;;;;;;5095406;28;20028;-70
2022/06/08 13:00:36;;;;;;;19.20;14.30;;;;;;;;;;5094385;28;20032;-70
2022/06/08 13:03:22;;;;;;;16.87;12.23;;;;;;;;;;5094832;28;20133;-70
2022/06/08 13:05:49;;;;;;;18.63;13.50;;;;;;;;;;5093570;28;20077;-72
2022/06/08 13:08:19;;;;;;;19.13;13.80;;;;;;;;;;5089457;28;20036;-72
2022/06/08 13:10:46;;;;;;;19.43;13.30;;;;;;;;;;5089601;28;20022;-72
2022/06/08 13:13:19;;;;;;;19.57;13.93;;;;;;;;;;5090006;28;20298;-72
2022/06/08 13:15:46;;;;;;;20.30;14.83;;;;;;;;;;5089477;28;20487;-71
2022/06/08 13:18:17;;;;;;;20.57;14.83;;;;;;;;;;5094921;28;20020;-71
2022/06/08 13:20:44;;;;;;;25.17;14.73;;;;;;;;;;5094668;28;20059;-71
2022/06/08 13:23:12;;;;;;;22.40;16.70;;;;;;;;;;5094835;28;20044;-71
2022/06/08 13:25:40;;;;;;;18.07;15.03;;;;;;;;;;5094042;28;20813;-71
2022/06/08 13:28:10;;;;;;;23.07;15.63;;;;;;;;;;5093097;28;20035;-72
2022/06/08 13:30:38;;;;;;;20.47;14.63;;;;;;;;;;5089157;28;20020;-72
2022/06/08 13:33:56;;;;;;;18.60;15.00;;;;;;;;;;5089385;28;20024;-71
2022/06/08 13:35:51;;;;;;;17.43;14.60;;;;;;;;;;5088779;28;20036;-71
2022/06/08 13:38:19;;;;;;;16.47;13.43;;;;;;;;;;5090379;28;20063;-72
2022/06/08 13:40:45;;;;;;;22.77;14.13;;;;;;;;;;5094174;28;20060;-72
2022/06/08 13:43:12;;;;;;;16.57;12.47;;;;;;;;;;5094387;28;20020;-72
2022/06/08 13:45:41;;;;;;;17.37;12.03;;;;;;;;;;5093727;28;20020;-72
2022/06/08 13:48:13;;;;;;;20.83;13.33;;;;;;;;;;5094122;28;20024;-72
2022/06/08 13:50:41;;;;;;;18.83;14.83;;;;;;;;;;5091939;28;20528;-72
2022/06/08 13:53:10;;;;;;;21.40;13.40;;;;;;;;;;5088983;28;20048;-72
2022/06/08 13:55:38;;;;;;;15.73;12.33;;;;;;;;;;5088352;28;20044;-72
2022/06/08 13:58:07;;;;;;;16.03;12.23;;;;;;;;;;5088664;28;20036;-73
2022/06/08 14:00:37;;;;;;;17.03;12.83;;;;;;;;;;5089918;28;20467;-72
2022/06/08 14:03:09;;;;;;;21.90;13.90;;;;;;;;;;5094086;28;20483;-71
2022/06/08 14:13:53;;;;;;;19.43;14.07;;;;;;;;;;5089736;28;20042;-72
2022/06/08 14:16:21;;;;;;;16.83;12.87;;;;;;;;;;5088538;28;20024;-72
2022/06/08 14:18:50;;;;;;;26.63;14.90;;;;;;;;;;5088245;28;20032;-72
2022/06/08 14:21:17;;;;;;;17.30;13.83;;;;;;;;;;5088047;28;20030;-72
2022/06/08 14:23:45;;;;;;;19.47;15.87;;;;;;;;;;5091043;28;20479;-71
2022/06/08 14:26:13;;;;;;;19.00;14.40;;;;;;;;;;5093676;28;20063;-72
2022/06/08 14:28:41;;;;;;;18.50;13.57;;;;;;;;;;5093402;28;20016;-72
2022/06/08 14:31:11;;;;;;;17.43;14.57;;;;;;;;;;5093520;28;20463;-72
2022/06/08 14:33:38;;;;;;;19.27;15.07;;;;;;;;;;5093012;28;20074;-72
2022/06/08 14:36:05;;;;;;;19.70;15.87;;;;;;;;;;5089515;28;20467;-72
2022/06/08 14:38:33;;;;;;;19.53;15.27;;;;;;;;;;5087583;28;20032;-72
2022/06/08 14:41:01;;;;;;;21.13;15.80;;;;;;;;;;5087969;28;20090;-71
2022/06/08 14:43:27;;;;;;;20.27;15.87;;;;;;;;;;5087893;28;20028;-72
2022/06/08 14:45:54;;;;;;;19.50;14.80;;;;;;;;;;5090317;28;20028;-71
2022/06/08 14:48:23;;;;;;;22.07;15.43;;;;;;;;;;5093196;28;20100;-71
2022/06/08 14:50:50;;;;;;;25.87;18.17;;;;;;;;;;5093066;28;20110;-72
2022/06/08 14:53:19;;;;;;;22.13;15.93;;;;;;;;;;5092783;28;20041;-72
2022/06/08 14:58:31;;;;;;;;;;;;;;;;;;5069244;28;20101;-72
2022/06/08 15:00:58;;;;;;;26.87;17.77;;;;;;;;;;5067310;28;20056;-72
2022/06/08 15:03:25;;;;;;;26.30;18.47;;;;;;;;;;5067291;28;20422;-71
2022/06/08 15:05:53;;;;;;;26.03;17.97;;;;;;;;;;5066838;28;20467;-72
2022/06/08 15:08:20;;;;;;;26.80;19.10;;;;;;;;;;5072393;28;20103;-72
2022/06/08 15:13:39;;;;;;;28.63;21.83;;;;;;;;;;5092999;28;20039;-72
2022/06/08 15:16:06;;;;;;;36.80;21.00;;;;;;;;;;5092345;28;20020;-72
2022/06/08 15:18:33;;;;;;;21.57;17.93;;;;;;;;;;5092602;28;20032;-72